Brunswick, GA

7:52 PM EDT on July 26, 2017 (GMT -0400)
Country Walk | | Change Station

Elev 30 ft 31.27 °N, 81.48 °W | Updated 3 seconds ago

Light Thunderstorms and Rain
Light Thunderstorm Rain
76.3 °F
Feels Like 76 °F
N
0.0
Wind Variable Wind from South
Gusts 1.0 mph

Today
High -- | Low -- °F
--% Chance of Precip.
Yesterday
High -- | Low -- °F
Precip. -- in
Pressure 30.04 in
Visibility 10.0 miles
Clouds Scattered Clouds 3400 ft
Mostly Cloudy 5500 ft
Overcast 6500 ft
Heat Index 76 °F
Dew Point 75 °F
Humidity 96%
Rainfall in
Snow Depth Not available.
6:39 AM 8:25 PM
Waxing Crescent, 16% visible
METAR KBQK 262335Z AUTO 13005KT 10SM -VCTSRA SCT034 BKN055 OVC065 25/25 A3004 RMK AO2 LTG DSNT SE THRU W
Pressure 30.04 in
Visibility 10.0 miles
Clouds Scattered Clouds 3400 ft
Mostly Cloudy 5500 ft
Overcast 6500 ft
Heat Index 76 °F
Dew Point 75 °F
Humidity 96%
Rainfall in
Snow Depth Not available.
6:39 AM 8:25 PM
Waxing Crescent, 16% visible
METAR KBQK 262335Z AUTO 13005KT 10SM -VCTSRA SCT034 BKN055 OVC065 25/25 A3004 RMK AO2 LTG DSNT SE THRU W

Get Severe Weather Alerts

Thanks for signing up!

Be on the lookout for a verification email in your inbox.

You'll start receiving the daily forecast at 6 AM.

×

10-Day Weather Forecast

Almanac

Astronomy

Jul. 26, 2017 Rise Set
Actual Time
Civil Twilight
Nautical Twilight
Astronomical Twilight
Moon
Length of Visible Light
Length of Day
Tomorrow will be .
, % of the Moon is Illuminated

Today's Extremes

State Highs State Lows

Community

WunderPhotos

Category 6

Welcome to Category 6. This is the collective home for Weather Underground's featured writeups by Dr. Jeff Masters (right), Bob Henson (left), Chris Burt, and other regular contributors.

Nearby

Air Quality

  Air Quality AQ Index Pollutant
Not available.

Snow Depth

Station Depth Elevation

Earthquake Activity

City Distance Mag. Time & Date
Minimum magnitude displayed is 2.5.

Coastal Water Temperatures

Place Temperature

Stations

Nearby Weather Stations

Station Location Temp. Windchill Dew Point Humidity Wind Precip. Elev Updated Type
                   

Watches & Warnings

There are currently no watches in effect.